sensor_id;sensor_type;location;lat;lon;timestamp;temperature;humidity
3644;DHT22;1838;50.742;7.158;2023-03-23T00:00:59;13.90;99.90
3644;DHT22;1838;50.742;7.158;2023-03-23T00:03:26;13.90;99.90
3644;DHT22;1838;50.742;7.158;2023-03-23T00:05:55;13.90;99.90
3644;DHT22;1838;50.742;7.158;2023-03-23T00:08:25;13.90;99.90
3644;DHT22;1838;50.742;7.158;2023-03-23T00:10:52;13.90;99.90
3644;DHT22;1838;50.742;7.158;2023-03-23T00:13:25;14.00;99.90
3644;DHT22;1838;50.742;7.158;2023-03-23T00:15:51;13.90;99.90
3644;DHT22;1838;50.742;7.158;2023-03-23T00:18:22;14.00;99.90
3644;DHT22;1838;50.742;7.158;2023-03-23T00:20:49;14.00;99.90
3644;DHT22;1838;50.742;7.158;2023-03-23T00:23:17;14.10;99.90
3644;DHT22;1838;50.742;7.158;2023-03-23T00:25:45;14.00;99.90
3644;DHT22;1838;50.742;7.158;2023-03-23T00:28:11;14.00;99.90
3644;DHT22;1838;50.742;7.158;2023-03-23T00:30:39;14.00;99.90
3644;DHT22;1838;50.742;7.158;2023-03-23T00:33:04;14.00;99.90
3644;DHT22;1838;50.742;7.158;2023-03-23T00:35:30;14.00;99.90
3644;DHT22;1838;50.742;7.158;2023-03-23T00:37:56;14.00;99.90
3644;DHT22;1838;50.742;7.158;2023-03-23T00:40:24;14.00;99.90
3644;DHT22;1838;50.742;7.158;2023-03-23T00:42:49;13.90;99.90
3644;DHT22;1838;50.742;7.158;2023-03-23T00:45:15;13.90;99.90
3644;DHT22;1838;50.742;7.158;2023-03-23T00:47:42;13.90;99.90
3644;DHT22;1838;50.742;7.158;2023-03-23T00:50:12;13.80;99.90
3644;DHT22;1838;50.742;7.158;2023-03-23T00:52:39;13.90;99.90
3644;DHT22;1838;50.742;7.158;2023-03-23T00:55:06;13.90;99.90
3644;DHT22;1838;50.742;7.158;2023-03-23T00:57:32;13.90;99.90
3644;DHT22;1838;50.742;7.158;2023-03-23T00:59:57;13.80;99.90
3644;DHT22;1838;50.742;7.158;2023-03-23T01:02:23;13.90;99.90
3644;DHT22;1838;50.742;7.158;2023-03-23T01:04:50;13.80;99.90
3644;DHT22;1838;50.742;7.158;2023-03-23T01:07:20;13.90;99.90
3644;DHT22;1838;50.742;7.158;2023-03-23T01:09:48;13.90;99.90
3644;DHT22;1838;50.742;7.158;2023-03-23T01:12:14;13.90;99.90
3644;DHT22;1838;50.742;7.158;2023-03-23T01:14:40;13.90;99.90
3644;DHT22;1838;50.742;7.158;2023-03-23T01:17:06;13.90;99.90
3644;DHT22;1838;50.742;7.158;2023-03-23T01:19:32;13.90;99.90
3644;DHT22;1838;50.742;7.158;2023-03-23T01:21:57;13.90;99.90
3644;DHT22;1838;50.742;7.158;2023-03-23T01:24:23;13.90;99.90
3644;DHT22;1838;50.742;7.158;2023-03-23T01:26:48;13.90;99.90
3644;DHT22;1838;50.742;7.158;2023-03-23T01:29:14;13.90;99.90
3644;DHT22;1838;50.742;7.158;2023-03-23T01:31:40;13.90;99.90
3644;DHT22;1838;50.742;7.158;2023-03-23T01:34:07;14.00;99.90
3644;DHT22;1838;50.742;7.158;2023-03-23T01:36:33;14.00;99.90
3644;DHT22;1838;50.742;7.158;2023-03-23T01:39:04;13.90;99.90
3644;DHT22;1838;50.742;7.158;2023-03-23T01:41:31;13.90;99.90
3644;DHT22;1838;50.742;7.158;2023-03-23T01:44:04;13.90;99.90
3644;DHT22;1838;50.742;7.158;2023-03-23T01:46:32;13.90;99.90
3644;DHT22;1838;50.742;7.158;2023-03-23T01:49:12;13.90;99.90
3644;DHT22;1838;50.742;7.158;2023-03-23T01:51:52;13.80;99.90
3644;DHT22;1838;50.742;7.158;2023-03-23T01:54:19;13.80;99.90
3644;DHT22;1838;50.742;7.158;2023-03-23T01:57:06;13.80;99.90
3644;DHT22;1838;50.742;7.158;2023-03-23T01:59:33;13.80;99.90
3644;DHT22;1838;50.742;7.158;2023-03-23T02:02:00;13.80;99.90
3644;DHT22;1838;50.742;7.158;2023-03-23T02:04:27;13.80;99.90
3644;DHT22;1838;50.742;7.158;2023-03-23T02:06:54;13.70;99.90
3644;DHT22;1838;50.742;7.158;2023-03-23T02:09:22;13.70;99.90
3644;DHT22;1838;50.742;7.158;2023-03-23T02:11:48;13.70;99.90
3644;DHT22;1838;50.742;7.158;2023-03-23T02:14:15;13.80;99.90
3644;DHT22;1838;50.742;7.158;2023-03-23T02:16:45;13.80;99.90
3644;DHT22;1838;50.742;7.158;2023-03-23T02:19:28;13.80;99.90
3644;DHT22;1838;50.742;7.158;2023-03-23T02:22:31;13.70;99.90
3644;DHT22;1838;50.742;7.158;2023-03-23T02:27:56;13.70;99.90
3644;DHT22;1838;50.742;7.158;2023-03-23T02:33:41;13.50;99.90
3644;DHT22;1838;50.742;7.158;2023-03-23T02:36:23;13.50;99.90
3644;DHT22;1838;50.742;7.158;2023-03-23T02:39:12;13.50;99.90
3644;DHT22;1838;50.742;7.158;2023-03-23T02:42:07;13.30;99.90
3644;DHT22;1838;50.742;7.158;2023-03-23T02:44:35;13.30;99.90
3644;DHT22;1838;50.742;7.158;2023-03-23T02:47:05;13.30;99.90
3644;DHT22;1838;50.742;7.158;2023-03-23T02:49:34;13.30;99.90
3644;DHT22;1838;50.742;7.158;2023-03-23T02:52:10;13.30;99.90
3644;DHT22;1838;50.742;7.158;2023-03-23T02:54:41;13.20;99.90
3644;DHT22;1838;50.742;7.158;2023-03-23T02:57:07;13.30;99.90
3644;DHT22;1838;50.742;7.158;2023-03-23T02:59:33;13.20;99.90
3644;DHT22;1838;50.742;7.158;2023-03-23T03:04:38;13.20;99.90
3644;DHT22;1838;50.742;7.158;2023-03-23T03:07:28;13.10;99.90
3644;DHT22;1838;50.742;7.158;2023-03-23T03:12:57;13.00;99.90
3644;DHT22;1838;50.742;7.158;2023-03-23T03:15:37;12.90;99.90
3644;DHT22;1838;50.742;7.158;2023-03-23T03:20:50;12.80;99.90
3644;DHT22;1838;50.742;7.158;2023-03-23T03:23:20;12.70;99.90
3644;DHT22;1838;50.742;7.158;2023-03-23T03:25:47;12.80;99.90
3644;DHT22;1838;50.742;7.158;2023-03-23T03:28:16;12.70;99.90
3644;DHT22;1838;50.742;7.158;2023-03-23T03:30:44;12.70;99.90
3644;DHT22;1838;50.742;7.158;2023-03-23T03:33:10;12.70;99.90
3644;DHT22;1838;50.742;7.158;2023-03-23T03:35:38;12.70;99.90
3644;DHT22;1838;50.742;7.158;2023-03-23T03:38:10;12.70;99.90
3644;DHT22;1838;50.742;7.158;2023-03-23T03:40:36;12.70;99.90
3644;DHT22;1838;50.742;7.158;2023-03-23T03:43:02;12.70;99.90
3644;DHT22;1838;50.742;7.158;2023-03-23T03:45:28;12.80;99.90
3644;DHT22;1838;50.742;7.158;2023-03-23T03:47:54;12.80;99.90
3644;DHT22;1838;50.742;7.158;2023-03-23T03:50:20;12.80;99.90
3644;DHT22;1838;50.742;7.158;2023-03-23T03:52:45;12.80;99.90
3644;DHT22;1838;50.742;7.158;2023-03-23T03:55:11;12.90;99.90
3644;DHT22;1838;50.742;7.158;2023-03-23T03:57:37;12.90;99.90
3644;DHT22;1838;50.742;7.158;2023-03-23T04:00:04;13.00;99.90
3644;DHT22;1838;50.742;7.158;2023-03-23T04:02:42;13.00;99.90
3644;DHT22;1838;50.742;7.158;2023-03-23T04:05:08;13.00;99.90
3644;DHT22;1838;50.742;7.158;2023-03-23T04:07:35;13.00;99.90
3644;DHT22;1838;50.742;7.158;2023-03-23T04:10:04;13.00;99.90
3644;DHT22;1838;50.742;7.158;2023-03-23T04:12:30;13.00;99.90
3644;DHT22;1838;50.742;7.158;2023-03-23T04:14:57;13.00;99.90
3644;DHT22;1838;50.742;7.158;2023-03-23T04:17:23;13.10;99.90
3644;DHT22;1838;50.742;7.158;2023-03-23T04:19:52;13.00;99.90
3644;DHT22;1838;50.742;7.158;2023-03-23T04:22:17;13.00;99.90
3644;DHT22;1838;50.742;7.158;2023-03-23T04:24:43;13.10;99.90
3644;DHT22;1838;50.742;7.158;2023-03-23T04:27:08;13.10;99.90
3644;DHT22;1838;50.742;7.158;2023-03-23T04:29:34;13.10;99.90
3644;DHT22;1838;50.742;7.158;2023-03-23T04:31:59;13.10;99.90
3644;DHT22;1838;50.742;7.158;2023-03-23T04:34:27;13.00;99.90
3644;DHT22;1838;50.742;7.158;2023-03-23T04:36:52;13.00;99.90
3644;DHT22;1838;50.742;7.158;2023-03-23T04:39:18;13.00;99.90
3644;DHT22;1838;50.742;7.158;2023-03-23T04:41:44;12.90;99.90
3644;DHT22;1838;50.742;7.158;2023-03-23T04:44:11;12.90;99.90
3644;DHT22;1838;50.742;7.158;2023-03-23T04:46:43;12.90;99.90
3644;DHT22;1838;50.742;7.158;2023-03-23T04:49:10;12.90;99.90
3644;DHT22;1838;50.742;7.158;2023-03-23T04:51:36;12.90;99.90
3644;DHT22;1838;50.742;7.158;2023-03-23T04:54:02;12.80;99.90
3644;DHT22;1838;50.742;7.158;2023-03-23T04:56:27;12.90;99.90
3644;DHT22;1838;50.742;7.158;2023-03-23T04:58:53;12.80;99.90
3644;DHT22;1838;50.742;7.158;2023-03-23T05:01:19;12.80;99.90
3644;DHT22;1838;50.742;7.158;2023-03-23T05:03:44;12.80;99.90
3644;DHT22;1838;50.742;7.158;2023-03-23T05:06:10;12.80;99.90
3644;DHT22;1838;50.742;7.158;2023-03-23T05:08:36;12.80;99.90
3644;DHT22;1838;50.742;7.158;2023-03-23T05:11:05;12.80;99.90
3644;DHT22;1838;50.742;7.158;2023-03-23T05:13:31;12.80;99.90
3644;DHT22;1838;50.742;7.158;2023-03-23T05:15:58;12.80;99.90
3644;DHT22;1838;50.742;7.158;2023-03-23T05:18:23;12.80;99.90
3644;DHT22;1838;50.742;7.158;2023-03-23T05:20:49;12.80;99.90
3644;DHT22;1838;50.742;7.158;2023-03-23T05:23:18;12.80;99.90
3644;DHT22;1838;50.742;7.158;2023-03-23T05:25:55;12.70;99.90
3644;DHT22;1838;50.742;7.158;2023-03-23T05:28:21;12.70;99.90
3644;DHT22;1838;50.742;7.158;2023-03-23T05:30:48;12.70;99.90
3644;DHT22;1838;50.742;7.158;2023-03-23T05:33:14;12.70;99.90
3644;DHT22;1838;50.742;7.158;2023-03-23T05:35:39;12.80;99.90
3644;DHT22;1838;50.742;7.158;2023-03-23T05:38:05;12.80;99.90
3644;DHT22;1838;50.742;7.158;2023-03-23T05:40:31;12.80;99.90
3644;DHT22;1838;50.742;7.158;2023-03-23T05:42:56;12.80;99.90
3644;DHT22;1838;50.742;7.158;2023-03-23T05:45:24;12.80;99.90
3644;DHT22;1838;50.742;7.158;2023-03-23T05:47:50;12.80;99.90
3644;DHT22;1838;50.742;7.158;2023-03-23T05:50:16;12.80;99.90
3644;DHT22;1838;50.742;7.158;2023-03-23T05:52:42;12.90;99.90
3644;DHT22;1838;50.742;7.158;2023-03-23T05:55:08;12.90;99.90
3644;DHT22;1838;50.742;7.158;2023-03-23T05:57:34;12.90;99.90
3644;DHT22;1838;50.742;7.158;2023-03-23T06:00:00;12.90;99.90
3644;DHT22;1838;50.742;7.158;2023-03-23T06:02:31;12.80;99.90
3644;DHT22;1838;50.742;7.158;2023-03-23T06:04:57;12.90;99.90
3644;DHT22;1838;50.742;7.158;2023-03-23T06:07:23;13.00;99.90
3644;DHT22;1838;50.742;7.158;2023-03-23T06:09:51;12.90;99.90
3644;DHT22;1838;50.742;7.158;2023-03-23T06:12:17;13.00;99.90
3644;DHT22;1838;50.742;7.158;2023-03-23T06:14:47;13.00;99.90
3644;DHT22;1838;50.742;7.158;2023-03-23T06:17:16;13.00;99.90
3644;DHT22;1838;50.742;7.158;2023-03-23T06:19:43;13.00;99.90
3644;DHT22;1838;50.742;7.158;2023-03-23T06:22:09;13.00;99.90
3644;DHT22;1838;50.742;7.158;2023-03-23T06:24:35;13.00;99.90
3644;DHT22;1838;50.742;7.158;2023-03-23T06:27:01;13.10;99.90
3644;DHT22;1838;50.742;7.158;2023-03-23T06:29:27;13.00;99.90
3644;DHT22;1838;50.742;7.158;2023-03-23T06:31:55;13.00;99.90
3644;DHT22;1838;50.742;7.158;2023-03-23T06:34:22;13.10;99.90
3644;DHT22;1838;50.742;7.158;2023-03-23T06:36:48;13.00;99.90
3644;DHT22;1838;50.742;7.158;2023-03-23T06:39:14;13.10;99.90
3644;DHT22;1838;50.742;7.158;2023-03-23T06:41:39;13.20;99.90
3644;DHT22;1838;50.742;7.158;2023-03-23T06:44:05;13.20;99.90
3644;DHT22;1838;50.742;7.158;2023-03-23T06:46:33;13.20;99.90
3644;DHT22;1838;50.742;7.158;2023-03-23T06:48:59;13.30;99.90
3644;DHT22;1838;50.742;7.158;2023-03-23T06:51:24;13.30;99.90
3644;DHT22;1838;50.742;7.158;2023-03-23T06:53:50;13.30;99.90
3644;DHT22;1838;50.742;7.158;2023-03-23T06:56:15;13.40;99.90
3644;DHT22;1838;50.742;7.158;2023-03-23T06:58:41;13.50;99.90
3644;DHT22;1838;50.742;7.158;2023-03-23T07:01:07;13.50;99.90
3644;DHT22;1838;50.742;7.158;2023-03-23T07:03:33;13.50;99.90
3644;DHT22;1838;50.742;7.158;2023-03-23T07:05:59;13.60;99.90
3644;DHT22;1838;50.742;7.158;2023-03-23T07:08:25;13.60;99.90
3644;DHT22;1838;50.742;7.158;2023-03-23T07:10:53;13.60;99.90
3644;DHT22;1838;50.742;7.158;2023-03-23T07:13:19;13.60;99.90
3644;DHT22;1838;50.742;7.158;2023-03-23T07:15:46;13.60;99.90
3644;DHT22;1838;50.742;7.158;2023-03-23T07:18:12;13.50;99.90
3644;DHT22;1838;50.742;7.158;2023-03-23T07:20:38;13.50;99.90
3644;DHT22;1838;50.742;7.158;2023-03-23T07:23:04;13.60;99.90
3644;DHT22;1838;50.742;7.158;2023-03-23T07:25:33;13.70;99.90
3644;DHT22;1838;50.742;7.158;2023-03-23T07:28:00;13.70;99.90
3644;DHT22;1838;50.742;7.158;2023-03-23T07:30:26;13.80;99.90
3644;DHT22;1838;50.742;7.158;2023-03-23T07:32:52;13.90;99.90
3644;DHT22;1838;50.742;7.158;2023-03-23T07:35:18;13.90;99.90
3644;DHT22;1838;50.742;7.158;2023-03-23T07:37:44;14.00;99.90
3644;DHT22;1838;50.742;7.158;2023-03-23T07:40:11;14.10;99.90
3644;DHT22;1838;50.742;7.158;2023-03-23T07:42:45;14.10;99.90
3644;DHT22;1838;50.742;7.158;2023-03-23T07:45:14;14.10;99.90
3644;DHT22;1838;50.742;7.158;2023-03-23T07:47:40;14.20;99.90
3644;DHT22;1838;50.742;7.158;2023-03-23T07:50:07;14.20;99.90
3644;DHT22;1838;50.742;7.158;2023-03-23T07:52:34;14.30;99.90
3644;DHT22;1838;50.742;7.158;2023-03-23T07:55:01;14.40;99.90
3644;DHT22;1838;50.742;7.158;2023-03-23T07:57:29;14.30;99.90
3644;DHT22;1838;50.742;7.158;2023-03-23T07:59:55;14.40;99.90
3644;DHT22;1838;50.742;7.158;2023-03-23T08:02:22;14.40;99.90
3644;DHT22;1838;50.742;7.158;2023-03-23T08:04:47;14.50;99.90
3644;DHT22;1838;50.742;7.158;2023-03-23T08:07:14;14.50;99.90
3644;DHT22;1838;50.742;7.158;2023-03-23T08:09:42;14.50;99.90
3644;DHT22;1838;50.742;7.158;2023-03-23T08:12:08;14.60;99.90
3644;DHT22;1838;50.742;7.158;2023-03-23T08:14:35;14.70;99.90
3644;DHT22;1838;50.742;7.158;2023-03-23T08:17:00;14.70;99.90
3644;DHT22;1838;50.742;7.158;2023-03-23T08:19:26;14.80;99.90
3644;DHT22;1838;50.742;7.158;2023-03-23T08:21:52;14.80;99.90
3644;DHT22;1838;50.742;7.158;2023-03-23T08:24:19;14.80;99.90
3644;DHT22;1838;50.742;7.158;2023-03-23T08:26:44;14.80;99.90
3644;DHT22;1838;50.742;7.158;2023-03-23T08:29:10;14.90;99.90
3644;DHT22;1838;50.742;7.158;2023-03-23T08:31:35;14.80;99.90
3644;DHT22;1838;50.742;7.158;2023-03-23T08:34:03;14.90;99.90
3644;DHT22;1838;50.742;7.158;2023-03-23T08:36:31;14.90;99.90
3644;DHT22;1838;50.742;7.158;2023-03-23T08:38:57;14.90;99.90
3644;DHT22;1838;50.742;7.158;2023-03-23T08:41:23;14.90;99.90
3644;DHT22;1838;50.742;7.158;2023-03-23T08:43:49;14.90;99.90
3644;DHT22;1838;50.742;7.158;2023-03-23T08:46:15;15.00;99.90
3644;DHT22;1838;50.742;7.158;2023-03-23T08:48:43;15.10;99.90
3644;DHT22;1838;50.742;7.158;2023-03-23T08:51:09;15.10;99.90
3644;DHT22;1838;50.742;7.158;2023-03-23T08:53:36;15.20;99.90
3644;DHT22;1838;50.742;7.158;2023-03-23T08:56:10;15.30;99.90
3644;DHT22;1838;50.742;7.158;2023-03-23T08:58:38;15.30;99.90
3644;DHT22;1838;50.742;7.158;2023-03-23T09:01:05;15.30;99.90
3644;DHT22;1838;50.742;7.158;2023-03-23T09:03:32;15.40;99.90
3644;DHT22;1838;50.742;7.158;2023-03-23T09:05:59;15.40;99.90
3644;DHT22;1838;50.742;7.158;2023-03-23T09:08:26;15.50;99.90
3644;DHT22;1838;50.742;7.158;2023-03-23T09:11:00;15.50;99.90
3644;DHT22;1838;50.742;7.158;2023-03-23T09:13:26;15.60;99.90
3644;DHT22;1838;50.742;7.158;2023-03-23T09:15:52;15.60;99.90
3644;DHT22;1838;50.742;7.158;2023-03-23T09:18:18;15.60;99.90
3644;DHT22;1838;50.742;7.158;2023-03-23T09:20:44;15.60;99.90
3644;DHT22;1838;50.742;7.158;2023-03-23T09:23:09;15.60;99.90
3644;DHT22;1838;50.742;7.158;2023-03-23T09:25:36;15.70;99.90
3644;DHT22;1838;50.742;7.158;2023-03-23T09:28:01;15.70;99.90
3644;DHT22;1838;50.742;7.158;2023-03-23T09:30:29;15.80;99.90
3644;DHT22;1838;50.742;7.158;2023-03-23T09:32:56;15.80;99.90
3644;DHT22;1838;50.742;7.158;2023-03-23T09:35:23;15.90;99.90
3644;DHT22;1838;50.742;7.158;2023-03-23T09:37:51;15.90;99.90
3644;DHT22;1838;50.742;7.158;2023-03-23T09:40:28;15.80;99.90
3644;DHT22;1838;50.742;7.158;2023-03-23T09:43:29;15.80;99.90
3644;DHT22;1838;50.742;7.158;2023-03-23T09:49:01;15.80;99.90
3644;DHT22;1838;50.742;7.158;2023-03-23T09:52:03;15.80;99.90
3644;DHT22;1838;50.742;7.158;2023-03-23T09:54:38;16.00;99.90
3644;DHT22;1838;50.742;7.158;2023-03-23T09:57:22;15.90;99.90
3644;DHT22;1838;50.742;7.158;2023-03-23T10:00:00;16.00;99.90
3644;DHT22;1838;50.742;7.158;2023-03-23T10:02:39;16.00;99.90
3644;DHT22;1838;50.742;7.158;2023-03-23T10:05:27;16.10;99.90
3644;DHT22;1838;50.742;7.158;2023-03-23T10:07:54;16.10;99.90
3644;DHT22;1838;50.742;7.158;2023-03-23T10:10:24;16.10;99.90
3644;DHT22;1838;50.742;7.158;2023-03-23T10:12:57;16.10;99.90
3644;DHT22;1838;50.742;7.158;2023-03-23T10:15:30;16.20;99.90
3644;DHT22;1838;50.742;7.158;2023-03-23T10:18:04;16.20;99.90
3644;DHT22;1838;50.742;7.158;2023-03-23T10:31:40;16.30;99.90
3644;DHT22;1838;50.742;7.158;2023-03-23T10:37:21;16.50;99.90
3644;DHT22;1838;50.742;7.158;2023-03-23T10:39:57;16.60;99.90
3644;DHT22;1838;50.742;7.158;2023-03-23T10:42:33;16.60;99.90
3644;DHT22;1838;50.742;7.158;2023-03-23T10:45:04;16.40;99.90
3644;DHT22;1838;50.742;7.158;2023-03-23T10:47:38;16.40;99.90
3644;DHT22;1838;50.742;7.158;2023-03-23T10:50:06;16.20;99.90
3644;DHT22;1838;50.742;7.158;2023-03-23T10:52:40;16.20;99.90
3644;DHT22;1838;50.742;7.158;2023-03-23T10:55:13;16.30;99.90
3644;DHT22;1838;50.742;7.158;2023-03-23T10:57:45;16.40;99.90
3644;DHT22;1838;50.742;7.158;2023-03-23T11:02:47;16.20;99.90
3644;DHT22;1838;50.742;7.158;2023-03-23T11:05:23;16.10;99.90
3644;DHT22;1838;50.742;7.158;2023-03-23T11:07:56;16.10;99.90
3644;DHT22;1838;50.742;7.158;2023-03-23T11:10:27;16.10;99.90
3644;DHT22;1838;50.742;7.158;2023-03-23T11:12:57;16.00;99.90
3644;DHT22;1838;50.742;7.158;2023-03-23T11:18:03;16.10;99.90
3644;DHT22;1838;50.742;7.158;2023-03-23T11:20:37;16.30;99.90
3644;DHT22;1838;50.742;7.158;2023-03-23T11:23:14;16.20;99.90
3644;DHT22;1838;50.742;7.158;2023-03-23T11:28:53;16.50;99.90
3644;DHT22;1838;50.742;7.158;2023-03-23T11:31:33;16.40;99.90
3644;DHT22;1838;50.742;7.158;2023-03-23T11:34:02;16.50;99.90
3644;DHT22;1838;50.742;7.158;2023-03-23T11:36:39;16.60;99.90
3644;DHT22;1838;50.742;7.158;2023-03-23T11:45:21;17.10;99.90
3644;DHT22;1838;50.742;7.158;2023-03-23T11:47:56;17.30;99.90
3644;DHT22;1838;50.742;7.158;2023-03-23T11:53:10;17.70;99.90
3644;DHT22;1838;50.742;7.158;2023-03-23T11:58:16;18.00;99.90
3644;DHT22;1838;50.742;7.158;2023-03-23T12:06:13;18.10;99.90
3644;DHT22;1838;50.742;7.158;2023-03-23T12:09:03;18.10;99.90
3644;DHT22;1838;50.742;7.158;2023-03-23T12:11:40;18.20;99.90
3644;DHT22;1838;50.742;7.158;2023-03-23T12:14:16;18.00;99.90
3644;DHT22;1838;50.742;7.158;2023-03-23T12:19:41;18.20;99.90
3644;DHT22;1838;50.742;7.158;2023-03-23T12:25:30;18.40;99.90
3644;DHT22;1838;50.742;7.158;2023-03-23T12:30:44;18.70;99.90
3644;DHT22;1838;50.742;7.158;2023-03-23T12:33:17;18.70;99.90
3644;DHT22;1838;50.742;7.158;2023-03-23T12:35:52;18.70;99.90
3644;DHT22;1838;50.742;7.158;2023-03-23T12:38:45;18.80;99.90
3644;DHT22;1838;50.742;7.158;2023-03-23T12:41:35;18.80;99.90
3644;DHT22;1838;50.742;7.158;2023-03-23T12:44:07;18.80;99.90
3644;DHT22;1838;50.742;7.158;2023-03-23T12:46:57;18.70;99.90
3644;DHT22;1838;50.742;7.158;2023-03-23T12:49:42;18.70;99.90
3644;DHT22;1838;50.742;7.158;2023-03-23T12:52:35;18.70;99.90
3644;DHT22;1838;50.742;7.158;2023-03-23T12:55:06;18.70;99.90
3644;DHT22;1838;50.742;7.158;2023-03-23T13:04:10;18.20;99.90
3644;DHT22;1838;50.742;7.158;2023-03-23T13:06:40;17.70;99.90
3644;DHT22;1838;50.742;7.158;2023-03-23T13:12:12;17.70;99.90
3644;DHT22;1838;50.742;7.158;2023-03-23T13:14:47;17.60;99.90
3644;DHT22;1838;50.742;7.158;2023-03-23T13:31:17;17.40;99.90
3644;DHT22;1838;50.742;7.158;2023-03-23T13:33:57;17.40;99.90
3644;DHT22;1838;50.742;7.158;2023-03-23T13:36:44;17.50;99.90
3644;DHT22;1838;50.742;7.158;2023-03-23T13:39:19;17.60;99.90
3644;DHT22;1838;50.742;7.158;2023-03-23T13:41:48;17.60;99.90
3644;DHT22;1838;50.742;7.158;2023-03-23T13:44:19;17.70;99.90
3644;DHT22;1838;50.742;7.158;2023-03-23T13:46:55;17.80;99.90
3644;DHT22;1838;50.742;7.158;2023-03-23T13:49:22;17.70;99.90
3644;DHT22;1838;50.742;7.158;2023-03-23T13:52:22;17.60;99.90
3644;DHT22;1838;50.742;7.158;2023-03-23T13:54:49;17.70;99.90
3644;DHT22;1838;50.742;7.158;2023-03-23T13:57:36;17.60;99.90
3644;DHT22;1838;50.742;7.158;2023-03-23T14:06:12;17.80;99.90
3644;DHT22;1838;50.742;7.158;2023-03-23T14:08:41;17.90;99.90
3644;DHT22;1838;50.742;7.158;2023-03-23T14:11:26;18.00;99.90
3644;DHT22;1838;50.742;7.158;2023-03-23T14:14:05;18.10;99.90
3644;DHT22;1838;50.742;7.158;2023-03-23T14:16:40;18.20;99.90
3644;DHT22;1838;50.742;7.158;2023-03-23T14:19:30;18.20;99.90
3644;DHT22;1838;50.742;7.158;2023-03-23T14:21:58;18.40;99.90
3644;DHT22;1838;50.742;7.158;2023-03-23T14:24:27;18.40;99.90
3644;DHT22;1838;50.742;7.158;2023-03-23T14:27:09;18.40;99.90
3644;DHT22;1838;50.742;7.158;2023-03-23T14:29:35;18.50;99.90
3644;DHT22;1838;50.742;7.158;2023-03-23T14:32:02;18.50;99.90
3644;DHT22;1838;50.742;7.158;2023-03-23T14:34:30;18.40;99.90
3644;DHT22;1838;50.742;7.158;2023-03-23T14:36:57;18.10;99.90
3644;DHT22;1838;50.742;7.158;2023-03-23T14:39:28;17.90;99.90
3644;DHT22;1838;50.742;7.158;2023-03-23T14:42:01;17.80;99.90
3644;DHT22;1838;50.742;7.158;2023-03-23T14:44:30;17.80;99.90
3644;DHT22;1838;50.742;7.158;2023-03-23T14:46:58;17.90;99.90
3644;DHT22;1838;50.742;7.158;2023-03-23T14:49:33;17.80;99.90
3644;DHT22;1838;50.742;7.158;2023-03-23T14:52:07;17.70;99.90
3644;DHT22;1838;50.742;7.158;2023-03-23T14:54:33;17.70;99.90
3644;DHT22;1838;50.742;7.158;2023-03-23T14:57:09;17.50;99.90
3644;DHT22;1838;50.742;7.158;2023-03-23T14:59:36;17.30;99.90
3644;DHT22;1838;50.742;7.158;2023-03-23T15:02:01;17.40;99.90
3644;DHT22;1838;50.742;7.158;2023-03-23T15:04:28;17.40;99.90
3644;DHT22;1838;50.742;7.158;2023-03-23T15:06:59;17.50;99.90
3644;DHT22;1838;50.742;7.158;2023-03-23T15:09:25;17.60;99.90
3644;DHT22;1838;50.742;7.158;2023-03-23T15:12:02;17.60;99.90
3644;DHT22;1838;50.742;7.158;2023-03-23T15:14:55;17.70;99.90
3644;DHT22;1838;50.742;7.158;2023-03-23T15:17:25;17.80;99.90
3644;DHT22;1838;50.742;7.158;2023-03-23T15:19:53;17.90;99.90
3644;DHT22;1838;50.742;7.158;2023-03-23T15:22:30;18.00;99.90
3644;DHT22;1838;50.742;7.158;2023-03-23T15:27:43;18.30;99.90
3644;DHT22;1838;50.742;7.158;2023-03-23T15:32:53;18.30;99.90
3644;DHT22;1838;50.742;7.158;2023-03-23T15:35:21;18.40;99.90
3644;DHT22;1838;50.742;7.158;2023-03-23T15:48:13;17.60;99.90
3644;DHT22;1838;50.742;7.158;2023-03-23T16:04:17;17.80;99.90
3644;DHT22;1838;50.742;7.158;2023-03-23T16:28:15;17.90;99.90
3644;DHT22;1838;50.742;7.158;2023-03-23T16:30:42;17.90;99.90
3644;DHT22;1838;50.742;7.158;2023-03-23T16:33:08;17.90;99.90
3644;DHT22;1838;50.742;7.158;2023-03-23T16:35:36;17.90;99.90
3644;DHT22;1838;50.742;7.158;2023-03-23T16:38:02;17.90;99.90
3644;DHT22;1838;50.742;7.158;2023-03-23T17:27:08;16.50;99.90
3644;DHT22;1838;50.742;7.158;2023-03-23T17:34:44;16.40;99.90
3644;DHT22;1838;50.742;7.158;2023-03-23T17:39:45;16.20;99.90
3644;DHT22;1838;50.742;7.158;2023-03-23T17:42:11;16.10;99.90
3644;DHT22;1838;50.742;7.158;2023-03-23T17:44:37;16.10;99.90
3644;DHT22;1838;50.742;7.158;2023-03-23T17:47:02;16.00;99.90
3644;DHT22;1838;50.742;7.158;2023-03-23T17:49:28;15.90;99.90
3644;DHT22;1838;50.742;7.158;2023-03-23T17:51:56;15.80;99.90
3644;DHT22;1838;50.742;7.158;2023-03-23T17:54:22;15.80;99.90
3644;DHT22;1838;50.742;7.158;2023-03-23T17:56:50;15.70;99.90
3644;DHT22;1838;50.742;7.158;2023-03-23T17:59:16;15.80;99.90
3644;DHT22;1838;50.742;7.158;2023-03-23T18:01:42;15.70;99.90
3644;DHT22;1838;50.742;7.158;2023-03-23T18:04:07;15.80;99.90
3644;DHT22;1838;50.742;7.158;2023-03-23T18:06:33;15.80;99.90
3644;DHT22;1838;50.742;7.158;2023-03-23T18:08:58;15.80;99.90
3644;DHT22;1838;50.742;7.158;2023-03-23T18:11:24;15.80;99.90
3644;DHT22;1838;50.742;7.158;2023-03-23T18:13:49;15.70;99.90
3644;DHT22;1838;50.742;7.158;2023-03-23T18:16:15;15.50;99.90
3644;DHT22;1838;50.742;7.158;2023-03-23T18:18:41;15.50;99.90
3644;DHT22;1838;50.742;7.158;2023-03-23T18:21:08;15.50;99.90
3644;DHT22;1838;50.742;7.158;2023-03-23T18:23:35;15.40;99.90
3644;DHT22;1838;50.742;7.158;2023-03-23T18:26:03;15.40;99.90
3644;DHT22;1838;50.742;7.158;2023-03-23T18:28:29;15.50;99.90
3644;DHT22;1838;50.742;7.158;2023-03-23T18:33:30;15.60;99.90
3644;DHT22;1838;50.742;7.158;2023-03-23T18:35:58;15.60;99.90
3644;DHT22;1838;50.742;7.158;2023-03-23T18:38:24;15.60;99.90
3644;DHT22;1838;50.742;7.158;2023-03-23T18:40:50;15.60;99.90
3644;DHT22;1838;50.742;7.158;2023-03-23T18:43:16;15.60;99.90
3644;DHT22;1838;50.742;7.158;2023-03-23T18:45:50;15.60;99.90
3644;DHT22;1838;50.742;7.158;2023-03-23T18:48:17;15.50;99.90
3644;DHT22;1838;50.742;7.158;2023-03-23T18:50:47;15.50;99.90
3644;DHT22;1838;50.742;7.158;2023-03-23T18:53:13;15.50;99.90
3644;DHT22;1838;50.742;7.158;2023-03-23T18:55:43;15.50;99.90
3644;DHT22;1838;50.742;7.158;2023-03-23T18:58:10;15.50;99.90
3644;DHT22;1838;50.742;7.158;2023-03-23T19:00:36;15.50;99.90
3644;DHT22;1838;50.742;7.158;2023-03-23T19:03:03;15.30;99.90
3644;DHT22;1838;50.742;7.158;2023-03-23T19:05:29;15.40;99.90
3644;DHT22;1838;50.742;7.158;2023-03-23T19:07:55;15.30;99.90
3644;DHT22;1838;50.742;7.158;2023-03-23T19:10:21;15.30;99.90
3644;DHT22;1838;50.742;7.158;2023-03-23T19:12:48;15.30;99.90
3644;DHT22;1838;50.742;7.158;2023-03-23T19:15:14;15.30;99.90
3644;DHT22;1838;50.742;7.158;2023-03-23T19:17:40;15.30;99.90
3644;DHT22;1838;50.742;7.158;2023-03-23T19:20:06;15.20;99.90
3644;DHT22;1838;50.742;7.158;2023-03-23T19:22:35;15.20;99.90
3644;DHT22;1838;50.742;7.158;2023-03-23T19:25:02;15.20;99.90
3644;DHT22;1838;50.742;7.158;2023-03-23T19:27:28;15.20;99.90
3644;DHT22;1838;50.742;7.158;2023-03-23T19:29:53;15.20;99.90
3644;DHT22;1838;50.742;7.158;2023-03-23T19:32:19;15.20;99.90
3644;DHT22;1838;50.742;7.158;2023-03-23T19:34:45;15.20;99.90
3644;DHT22;1838;50.742;7.158;2023-03-23T19:37:10;15.20;99.90
3644;DHT22;1838;50.742;7.158;2023-03-23T19:39:36;15.30;99.90